createdAt,value
2018-03-03T00:00:06.592Z,0
2018-03-03T00:00:47.268Z,0
2018-03-03T00:01:27.819Z,0
2018-03-03T00:02:08.373Z,0
2018-03-03T00:02:48.995Z,0
2018-03-03T00:03:29.494Z,0
2018-03-03T00:04:10.095Z,0
2018-03-03T00:04:50.653Z,0
2018-03-03T00:05:31.187Z,0
2018-03-03T00:06:11.742Z,0
2018-03-03T00:06:52.294Z,0
2018-03-03T00:07:32.904Z,0
2018-03-03T00:08:13.430Z,0
2018-03-03T00:08:53.987Z,0
2018-03-03T00:09:34.541Z,0
2018-03-03T00:10:15.093Z,0
2018-03-03T00:10:55.639Z,0
2018-03-03T00:11:36.175Z,0
2018-03-03T00:12:16.729Z,0
2018-03-03T00:12:57.293Z,0
2018-03-03T00:13:37.830Z,0
2018-03-03T00:14:18.394Z,0
2018-03-03T00:14:58.957Z,0
2018-03-03T00:15:39.511Z,0
2018-03-03T00:16:20.063Z,0
2018-03-03T00:17:00.615Z,0
2018-03-03T00:17:41.155Z,0
2018-03-03T00:18:21.722Z,0
2018-03-03T00:19:02.328Z,0
2018-03-03T00:19:42.849Z,0
2018-03-03T00:20:23.412Z,0
2018-03-03T00:21:03.962Z,0
2018-03-03T00:21:44.529Z,0
2018-03-03T00:22:25.149Z,0
2018-03-03T00:23:05.638Z,0
2018-03-03T00:23:46.187Z,0
2018-03-03T00:24:26.766Z,0
2018-03-03T00:25:07.328Z,0
2018-03-03T00:25:47.877Z,0
2018-03-03T00:26:28.432Z,0
2018-03-03T00:27:08.969Z,0
2018-03-03T00:27:49.528Z,0
2018-03-03T00:28:30.063Z,0
2018-03-03T00:29:10.626Z,0
2018-03-03T00:29:51.166Z,0
2018-03-03T00:30:31.766Z,0
2018-03-03T00:31:12.269Z,0
2018-03-03T00:31:52.835Z,0
2018-03-03T00:32:33.367Z,0
2018-03-03T00:33:13.908Z,0
2018-03-03T00:33:54.534Z,0
2018-03-03T00:34:35.075Z,0
2018-03-03T00:35:15.644Z,0
2018-03-03T00:35:56.200Z,0
2018-03-03T00:36:36.766Z,0
2018-03-03T00:37:17.316Z,0
2018-03-03T00:37:57.876Z,0
2018-03-03T00:38:38.436Z,0
2018-03-03T00:39:18.987Z,0
2018-03-03T00:39:59.541Z,0
2018-03-03T00:40:40.101Z,0
2018-03-03T00:41:20.654Z,0
2018-03-03T00:42:01.204Z,0
2018-03-03T00:42:41.805Z,0
2018-03-03T00:43:22.303Z,0
2018-03-03T00:44:02.856Z,0
2018-03-03T00:44:43.413Z,0
2018-03-03T00:45:23.987Z,0
2018-03-03T00:46:04.547Z,0
2018-03-03T00:46:45.091Z,0
2018-03-03T00:47:25.647Z,0
2018-03-03T00:48:06.189Z,0
2018-03-03T00:48:46.733Z,0
2018-03-03T00:49:27.274Z,0
2018-03-03T00:50:07.820Z,0
2018-03-03T00:50:48.368Z,0
2018-03-03T00:51:28.913Z,0
2018-03-03T00:52:09.459Z,0
2018-03-03T00:52:50.039Z,0
2018-03-03T00:53:30.598Z,0
2018-03-03T00:54:11.145Z,0
2018-03-03T00:54:51.744Z,0
2018-03-03T00:55:32.313Z,0
2018-03-03T00:56:12.837Z,0
2018-03-03T00:56:53.388Z,0
2018-03-03T00:57:33.997Z,0
2018-03-03T00:58:14.502Z,0
2018-03-03T00:58:55.059Z,0
2018-03-03T00:59:35.615Z,0
2018-03-03T01:00:16.179Z,0
2018-03-03T01:00:56.740Z,0
2018-03-03T01:01:37.282Z,0
2018-03-03T01:02:17.831Z,0
2018-03-03T01:02:58.376Z,0
2018-03-03T01:03:38.922Z,0
2018-03-03T01:04:19.475Z,0
2018-03-03T01:05:00.024Z,0
2018-03-03T01:05:40.559Z,0
2018-03-03T01:06:21.111Z,0
2018-03-03T01:07:01.658Z,0
2018-03-03T01:07:42.216Z,0
2018-03-03T01:08:22.762Z,0
2018-03-03T01:09:03.323Z,0
2018-03-03T01:09:43.879Z,0
2018-03-03T01:10:24.436Z,0
2018-03-03T01:11:04.981Z,0
2018-03-03T01:11:45.558Z,0
2018-03-03T01:12:26.117Z,0
2018-03-03T01:13:06.667Z,0
2018-03-03T01:13:47.246Z,0
2018-03-03T01:14:27.776Z,0
2018-03-03T01:15:08.320Z,0
2018-03-03T01:15:48.871Z,0
2018-03-03T01:16:29.417Z,0
2018-03-03T01:17:09.991Z,0
2018-03-03T01:17:50.540Z,0
2018-03-03T01:18:31.097Z,0
2018-03-03T01:19:11.648Z,0
2018-03-03T01:19:52.199Z,0
2018-03-03T01:20:32.736Z,0
2018-03-03T01:21:13.292Z,0
2018-03-03T01:21:53.828Z,0
2018-03-03T01:22:34.408Z,0
2018-03-03T01:23:15.030Z,0
2018-03-03T01:23:55.526Z,0
2018-03-03T01:24:36.092Z,0
2018-03-03T01:25:16.645Z,0
2018-03-03T01:25:57.182Z,0
2018-03-03T01:26:37.730Z,0
2018-03-03T01:27:18.294Z,0
2018-03-03T01:27:58.844Z,0
2018-03-03T01:28:39.394Z,0
2018-03-03T01:29:19.944Z,0
2018-03-03T01:30:00.488Z,0
2018-03-03T01:30:41.040Z,0
2018-03-03T01:31:21.585Z,0
2018-03-03T01:32:02.139Z,0
2018-03-03T01:32:42.694Z,0
2018-03-03T01:33:23.250Z,0
2018-03-03T01:34:03.802Z,0
2018-03-03T01:34:44.346Z,0
2018-03-03T01:35:24.899Z,0
2018-03-03T01:36:05.448Z,0
2018-03-03T01:36:45.994Z,0
2018-03-03T01:37:26.551Z,0
2018-03-03T01:38:07.093Z,0
2018-03-03T01:38:47.643Z,0
2018-03-03T01:39:28.183Z,0
2018-03-03T01:40:08.753Z,0
2018-03-03T01:40:49.299Z,0
2018-03-03T01:41:29.854Z,0
2018-03-03T01:42:10.404Z,0
2018-03-03T01:42:50.945Z,0
2018-03-03T01:43:31.495Z,0
2018-03-03T01:44:12.051Z,0
2018-03-03T01:44:52.655Z,0
2018-03-03T01:45:33.213Z,0
2018-03-03T01:46:13.807Z,0
2018-03-03T01:46:54.355Z,0
2018-03-03T01:47:34.907Z,0
2018-03-03T01:48:15.522Z,0
2018-03-03T01:48:56.073Z,0
2018-03-03T01:49:36.649Z,0
2018-03-03T01:50:17.204Z,0
2018-03-03T01:50:57.748Z,0
2018-03-03T01:51:38.298Z,0
2018-03-03T01:52:18.859Z,0
2018-03-03T01:52:59.404Z,0
2018-03-03T01:53:39.953Z,0
2018-03-03T01:54:20.503Z,0
2018-03-03T01:55:01.062Z,0
2018-03-03T01:55:41.618Z,0
2018-03-03T01:56:22.167Z,0
2018-03-03T01:57:02.719Z,0
2018-03-03T01:57:43.312Z,0
2018-03-03T01:58:23.853Z,0
2018-03-03T01:59:04.408Z,0
2018-03-03T01:59:44.999Z,0
2018-03-03T02:00:25.554Z,0
2018-03-03T02:01:06.125Z,0
2018-03-03T02:01:46.722Z,0
2018-03-03T02:02:27.270Z,0
2018-03-03T02:03:07.850Z,0
2018-03-03T02:03:48.411Z,0
2018-03-03T02:04:28.966Z,0
2018-03-03T02:05:09.543Z,0
2018-03-03T02:05:50.096Z,0
2018-03-03T02:06:30.649Z,0
2018-03-03T02:07:11.200Z,0
2018-03-03T02:07:51.745Z,0
2018-03-03T02:08:32.310Z,0
2018-03-03T02:09:12.854Z,0
2018-03-03T02:09:53.402Z,0
2018-03-03T02:10:33.966Z,0
2018-03-03T02:11:14.509Z,0
2018-03-03T02:11:55.062Z,0
2018-03-03T02:12:35.612Z,0
2018-03-03T02:13:16.156Z,0
2018-03-03T02:13:56.720Z,0
2018-03-03T02:14:37.268Z,0
2018-03-03T02:15:17.818Z,0
2018-03-03T02:15:58.380Z,0
2018-03-03T02:16:38.935Z,0
2018-03-03T02:17:19.486Z,0
2018-03-03T02:18:00.033Z,0
2018-03-03T02:18:40.584Z,0
2018-03-03T02:19:21.144Z,0
2018-03-03T02:20:01.710Z,0
2018-03-03T02:20:42.271Z,0
2018-03-03T02:21:22.822Z,0
2018-03-03T02:22:03.380Z,0
2018-03-03T02:22:43.945Z,0
2018-03-03T02:23:24.494Z,0
2018-03-03T02:24:05.048Z,0
2018-03-03T02:24:45.603Z,0
2018-03-03T02:25:26.145Z,0
2018-03-03T02:26:06.709Z,0
2018-03-03T02:26:47.266Z,0
2018-03-03T02:27:27.859Z,0
2018-03-03T02:28:08.454Z,0
2018-03-03T02:28:49.009Z,0
2018-03-03T02:29:29.558Z,0
2018-03-03T02:30:10.109Z,0
2018-03-03T02:30:50.665Z,0
2018-03-03T02:31:31.221Z,0
2018-03-03T02:32:11.758Z,0
2018-03-03T02:32:52.312Z,0
2018-03-03T02:33:32.858Z,0
2018-03-03T02:34:13.409Z,0
2018-03-03T02:34:53.967Z,0
2018-03-03T02:35:34.518Z,0
2018-03-03T02:36:15.065Z,0
2018-03-03T02:36:55.619Z,0
2018-03-03T02:37:36.170Z,0
2018-03-03T02:38:16.724Z,0
2018-03-03T02:38:57.273Z,0
2018-03-03T02:39:37.822Z,0
2018-03-03T02:40:18.372Z,0
2018-03-03T02:40:58.926Z,0
2018-03-03T02:41:39.488Z,0
2018-03-03T02:42:20.037Z,0
2018-03-03T02:43:00.590Z,0
2018-03-03T02:43:41.141Z,0
2018-03-03T02:44:21.694Z,0
2018-03-03T02:45:02.253Z,0
2018-03-03T02:45:42.807Z,0
2018-03-03T02:46:23.361Z,0
2018-03-03T02:47:03.917Z,0
2018-03-03T02:47:44.481Z,0
2018-03-03T02:48:25.032Z,0
2018-03-03T02:49:05.591Z,0
2018-03-03T02:49:46.141Z,0
2018-03-03T02:50:26.697Z,0
2018-03-03T02:51:07.242Z,0
2018-03-03T02:51:47.803Z,0
2018-03-03T02:52:28.365Z,0
2018-03-03T02:53:08.915Z,0
2018-03-03T02:53:49.464Z,0
2018-03-03T02:54:30.022Z,0
2018-03-03T02:55:10.574Z,0
2018-03-03T02:55:51.121Z,0
2018-03-03T02:56:31.667Z,0
2018-03-03T02:57:12.220Z,0
2018-03-03T02:57:52.769Z,0
2018-03-03T02:58:33.316Z,0
2018-03-03T02:59:13.869Z,0
2018-03-03T02:59:54.436Z,0
2018-03-03T03:00:34.987Z,0
2018-03-03T03:01:15.536Z,0
2018-03-03T03:01:56.107Z,0
2018-03-03T03:02:36.650Z,0
2018-03-03T03:03:17.236Z,0
2018-03-03T03:03:57.792Z,0
2018-03-03T03:04:38.348Z,0
2018-03-03T03:05:18.895Z,0
2018-03-03T03:05:59.455Z,0
2018-03-03T03:06:40.027Z,0
2018-03-03T03:07:20.574Z,0
2018-03-03T03:08:01.134Z,0
2018-03-03T03:08:41.686Z,0
2018-03-03T03:09:22.235Z,0
2018-03-03T03:10:02.788Z,0
2018-03-03T03:10:43.360Z,0
2018-03-03T03:11:23.902Z,0
2018-03-03T03:12:04.463Z,0
2018-03-03T03:12:45.014Z,0
2018-03-03T03:13:25.567Z,0
2018-03-03T03:14:06.128Z,0
2018-03-03T03:14:46.693Z,0
2018-03-03T03:15:27.231Z,0
2018-03-03T03:16:07.787Z,0
2018-03-03T03:16:48.358Z,0
2018-03-03T03:17:28.914Z,0
2018-03-03T03:18:09.465Z,0
2018-03-03T03:18:50.023Z,0
2018-03-03T03:19:30.569Z,0
2018-03-03T03:20:11.126Z,0
2018-03-03T03:20:51.685Z,0
2018-03-03T03:21:32.234Z,0
2018-03-03T03:22:12.788Z,0
2018-03-03T03:22:53.379Z,0
2018-03-03T03:23:33.931Z,0
2018-03-03T03:24:14.489Z,0
2018-03-03T03:24:55.040Z,0
2018-03-03T03:25:35.598Z,0
2018-03-03T03:26:16.188Z,0
2018-03-03T03:26:56.735Z,0
2018-03-03T03:27:37.294Z,0
2018-03-03T03:28:17.852Z,0
2018-03-03T03:28:58.403Z,0
2018-03-03T03:29:38.940Z,0
2018-03-03T03:30:19.516Z,0
2018-03-03T03:31:00.078Z,0
2018-03-03T03:31:40.653Z,0
2018-03-03T03:32:21.198Z,0
2018-03-03T03:33:01.762Z,0
2018-03-03T03:33:42.307Z,0
2018-03-03T03:34:22.861Z,0
2018-03-03T03:35:03.419Z,0
2018-03-03T03:35:43.958Z,0
2018-03-03T03:36:24.548Z,0
2018-03-03T03:37:05.133Z,0
2018-03-03T03:37:45.687Z,0
2018-03-03T03:38:26.247Z,0
2018-03-03T03:39:06.796Z,0
2018-03-03T03:39:47.342Z,0
2018-03-03T03:40:27.890Z,0
2018-03-03T03:41:08.456Z,0
2018-03-03T03:41:49.006Z,0
2018-03-03T03:42:29.565Z,0
2018-03-03T03:43:10.116Z,0
2018-03-03T03:43:50.682Z,0
2018-03-03T03:44:31.261Z,0
2018-03-03T03:45:11.814Z,0
2018-03-03T03:45:52.374Z,0
2018-03-03T03:46:32.928Z,0
2018-03-03T03:47:13.485Z,0
2018-03-03T03:47:54.045Z,0
2018-03-03T03:48:34.614Z,0
2018-03-03T03:49:15.183Z,0
2018-03-03T03:49:55.746Z,0
2018-03-03T03:50:36.290Z,0
2018-03-03T03:51:17.069Z,0
2018-03-03T03:51:57.634Z,0
2018-03-03T03:52:38.187Z,0
2018-03-03T03:53:18.743Z,0
2018-03-03T03:53:59.292Z,0
2018-03-03T03:54:39.849Z,0
2018-03-03T03:55:20.410Z,0
2018-03-03T03:56:00.951Z,0
2018-03-03T03:56:41.500Z,0
2018-03-03T03:57:22.052Z,0
2018-03-03T03:58:02.638Z,0
2018-03-03T03:58:43.212Z,0
2018-03-03T03:59:23.758Z,0
2018-03-03T04:00:04.312Z,0
2018-03-03T04:00:44.880Z,0
2018-03-03T04:01:25.434Z,0
2018-03-03T04:02:06.002Z,0
2018-03-03T04:02:46.554Z,0
2018-03-03T04:03:27.115Z,0
2018-03-03T04:04:07.677Z,0
2018-03-03T04:04:48.220Z,0
2018-03-03T04:05:28.768Z,0
2018-03-03T04:06:09.326Z,0
2018-03-03T04:06:49.896Z,0
2018-03-03T04:07:30.494Z,0
2018-03-03T04:08:11.054Z,0
2018-03-03T04:08:51.606Z,0
2018-03-03T04:09:32.156Z,0
2018-03-03T04:10:12.747Z,0
2018-03-03T04:10:53.296Z,0
2018-03-03T04:11:33.865Z,0
2018-03-03T04:12:14.421Z,0
2018-03-03T04:12:54.979Z,0
2018-03-03T04:13:35.527Z,0
2018-03-03T04:14:16.072Z,0
2018-03-03T04:14:56.625Z,0
2018-03-03T04:15:37.188Z,0
2018-03-03T04:16:17.774Z,0
2018-03-03T04:16:58.310Z,0
2018-03-03T04:17:38.863Z,0
2018-03-03T04:18:19.480Z,0
2018-03-03T04:19:00.042Z,0
2018-03-03T04:19:40.573Z,0
2018-03-03T04:20:21.130Z,0
2018-03-03T04:21:01.678Z,0
2018-03-03T04:21:42.240Z,0
2018-03-03T04:22:22.806Z,0
2018-03-03T04:23:03.353Z,0
2018-03-03T04:23:43.906Z,0
2018-03-03T04:24:24.519Z,0
2018-03-03T04:25:05.071Z,0
2018-03-03T04:25:45.636Z,0
2018-03-03T04:26:26.189Z,0
2018-03-03T04:27:06.731Z,0
2018-03-03T04:27:47.292Z,0
2018-03-03T04:28:27.844Z,0
2018-03-03T04:29:08.391Z,0
2018-03-03T04:29:48.935Z,0
2018-03-03T04:30:29.503Z,0
2018-03-03T04:31:10.057Z,0
2018-03-03T04:31:50.610Z,0
2018-03-03T04:32:31.202Z,0
2018-03-03T04:33:11.776Z,0
2018-03-03T04:33:52.340Z,0
2018-03-03T04:34:32.899Z,0
2018-03-03T04:35:13.443Z,0
2018-03-03T04:35:54.016Z,0
2018-03-03T04:36:34.576Z,0
2018-03-03T04:37:15.139Z,0
2018-03-03T04:37:55.693Z,0
2018-03-03T04:38:36.254Z,0
2018-03-03T04:39:16.800Z,0
2018-03-03T04:39:57.402Z,0
2018-03-03T04:40:37.904Z,0
2018-03-03T04:41:18.451Z,0
2018-03-03T04:41:59.017Z,0
2018-03-03T04:42:39.568Z,0
2018-03-03T04:43:20.112Z,0
2018-03-03T04:44:00.667Z,0
2018-03-03T04:44:41.217Z,0
2018-03-03T04:45:21.761Z,0
2018-03-03T04:46:02.317Z,0
2018-03-03T04:46:42.865Z,0
2018-03-03T04:47:23.426Z,0
2018-03-03T04:48:03.963Z,0
2018-03-03T04:48:44.532Z,0
2018-03-03T04:49:25.090Z,0
2018-03-03T04:50:05.649Z,0
2018-03-03T04:50:46.195Z,0
2018-03-03T04:51:26.738Z,0
2018-03-03T04:52:07.287Z,0
2018-03-03T04:52:47.835Z,0
2018-03-03T04:53:28.389Z,0
2018-03-03T04:54:08.949Z,0
2018-03-03T04:54:49.502Z,0
2018-03-03T04:55:30.072Z,0
2018-03-03T04:56:10.615Z,0
2018-03-03T04:56:51.175Z,0
2018-03-03T04:57:31.714Z,0
2018-03-03T04:58:12.276Z,0
2018-03-03T04:58:52.848Z,0
2018-03-03T04:59:33.415Z,0
2018-03-03T05:00:13.972Z,0
2018-03-03T05:00:54.517Z,0
2018-03-03T05:01:35.088Z,0
2018-03-03T05:02:15.641Z,0
2018-03-03T05:02:56.196Z,0
2018-03-03T05:03:36.740Z,0
2018-03-03T05:04:17.284Z,0
2018-03-03T05:04:57.849Z,0
2018-03-03T05:05:38.389Z,0
2018-03-03T05:06:18.933Z,0
2018-03-03T05:06:59.487Z,0
2018-03-03T05:07:40.034Z,0
2018-03-03T05:08:20.596Z,0
2018-03-03T05:09:01.137Z,0
2018-03-03T05:09:41.692Z,0
2018-03-03T05:10:22.258Z,0
2018-03-03T05:11:02.808Z,0
2018-03-03T05:11:43.364Z,0
2018-03-03T05:12:23.923Z,0
2018-03-03T05:13:04.465Z,0
2018-03-03T05:13:45.024Z,0
2018-03-03T05:14:25.594Z,0
2018-03-03T05:15:06.177Z,0
2018-03-03T05:15:46.753Z,4
2018-03-03T05:16:27.325Z,0
2018-03-03T05:17:07.881Z,0
2018-03-03T05:17:48.424Z,0
2018-03-03T05:18:28.978Z,4
2018-03-03T05:19:09.537Z,4
2018-03-03T05:19:50.121Z,0
2018-03-03T05:20:30.729Z,4
2018-03-03T05:21:11.279Z,4
2018-03-03T05:21:51.873Z,4
2018-03-03T05:22:32.457Z,4
2018-03-03T05:23:13.014Z,4
2018-03-03T05:23:53.574Z,8
2018-03-03T05:24:34.138Z,8
2018-03-03T05:25:14.692Z,8
2018-03-03T05:25:55.249Z,8
2018-03-03T05:26:35.799Z,8
2018-03-03T05:27:16.360Z,12
2018-03-03T05:27:56.922Z,8
2018-03-03T05:28:37.475Z,12
2018-03-03T05:29:18.026Z,12
2018-03-03T05:29:58.583Z,16
2018-03-03T05:30:39.153Z,16
2018-03-03T05:31:19.702Z,20
2018-03-03T05:32:00.266Z,20
2018-03-03T05:32:40.816Z,24
2018-03-03T05:33:21.388Z,28
2018-03-03T05:34:01.943Z,28
2018-03-03T05:34:42.503Z,32
2018-03-03T05:35:23.118Z,36
2018-03-03T05:36:03.677Z,40
2018-03-03T05:36:44.274Z,40
2018-03-03T05:37:24.827Z,44
2018-03-03T05:38:05.394Z,48
2018-03-03T05:38:45.950Z,52
2018-03-03T05:39:26.513Z,60
2018-03-03T05:40:07.081Z,64
2018-03-03T05:40:47.646Z,64
2018-03-03T05:41:28.206Z,72
2018-03-03T05:42:08.769Z,76
2018-03-03T05:42:49.312Z,84
2018-03-03T05:43:29.873Z,92
2018-03-03T05:44:10.442Z,100
2018-03-03T05:44:51.022Z,104
2018-03-03T05:45:31.573Z,112
2018-03-03T05:46:12.136Z,120
2018-03-03T05:46:52.694Z,128
2018-03-03T05:47:33.242Z,136
2018-03-03T05:48:13.795Z,148
2018-03-03T05:48:54.348Z,156
2018-03-03T05:49:34.923Z,164
2018-03-03T05:50:15.498Z,176
2018-03-03T05:50:56.087Z,188
2018-03-03T05:51:36.649Z,200
2018-03-03T05:52:17.198Z,208
2018-03-03T05:52:57.756Z,224
2018-03-03T05:56:47.781Z,300
2018-03-03T05:57:28.376Z,312
2018-03-03T05:58:08.935Z,328
2018-03-03T05:58:49.498Z,348
2018-03-03T05:59:30.046Z,364
2018-03-03T06:00:10.625Z,380
2018-03-03T06:00:51.174Z,396
2018-03-03T06:01:31.773Z,416
2018-03-03T06:02:12.329Z,432
2018-03-03T06:02:52.881Z,456
2018-03-03T06:03:33.454Z,476
2018-03-03T06:04:14.031Z,496
2018-03-03T06:04:54.584Z,520
2018-03-03T06:05:35.141Z,536
2018-03-03T06:06:15.696Z,560
2018-03-03T06:06:56.264Z,584
2018-03-03T06:07:36.869Z,608
2018-03-03T06:08:17.394Z,636
2018-03-03T06:08:57.970Z,660
2018-03-03T06:09:38.515Z,684
2018-03-03T06:10:19.067Z,708
2018-03-03T06:10:59.615Z,736
2018-03-03T06:11:40.162Z,764
2018-03-03T06:12:20.733Z,792
2018-03-03T06:13:01.303Z,820
2018-03-03T06:13:41.840Z,852
2018-03-03T06:14:22.438Z,880
2018-03-03T06:15:02.984Z,912
2018-03-03T06:15:43.552Z,944
2018-03-03T06:16:24.110Z,976
2018-03-03T06:17:04.676Z,1012
2018-03-03T06:17:45.226Z,1044
2018-03-03T06:18:25.776Z,1080
2018-03-03T06:19:06.327Z,1112
2018-03-03T06:19:46.890Z,1144
2018-03-03T06:20:27.639Z,1184
2018-03-03T06:21:08.220Z,1220
2018-03-03T06:21:48.875Z,1256
2018-03-03T06:22:29.456Z,1296
2018-03-03T06:23:10.051Z,1332
2018-03-03T06:23:50.580Z,1368
2018-03-03T06:24:31.166Z,1404
2018-03-03T06:25:11.712Z,1444
2018-03-03T06:25:52.261Z,1484
2018-03-03T06:26:32.825Z,1524
2018-03-03T06:27:13.382Z,1564
2018-03-03T06:27:53.939Z,1604
2018-03-03T06:28:34.490Z,1644
2018-03-03T06:29:15.045Z,1684
2018-03-03T06:29:55.595Z,1724
2018-03-03T06:30:36.137Z,1764
2018-03-03T06:31:16.685Z,1804
2018-03-03T06:31:57.342Z,1848
2018-03-03T06:32:37.868Z,1892
2018-03-03T06:33:18.415Z,1936
2018-03-03T06:33:58.965Z,1980
2018-03-03T06:34:39.520Z,2028
2018-03-03T06:35:20.067Z,2068
2018-03-03T06:36:00.619Z,2116
2018-03-03T06:36:41.172Z,2164
2018-03-03T06:37:21.743Z,2208
2018-03-03T06:38:02.302Z,2256
2018-03-03T06:38:42.869Z,2304
2018-03-03T06:39:23.422Z,2348
2018-03-03T06:40:03.978Z,2388
2018-03-03T06:40:44.531Z,2432
2018-03-03T06:41:25.077Z,2472
2018-03-03T06:42:05.631Z,2520
2018-03-03T06:42:46.216Z,2560
2018-03-03T06:43:26.773Z,2608
2018-03-03T06:44:07.411Z,2644
2018-03-03T06:44:48.004Z,2688
2018-03-03T06:45:28.550Z,2736
2018-03-03T06:46:09.097Z,2772
2018-03-03T06:46:49.652Z,2820
2018-03-03T06:47:30.198Z,2876
2018-03-03T06:48:10.736Z,2908
2018-03-03T06:48:51.295Z,2956
2018-03-03T06:49:31.863Z,3004
2018-03-03T06:50:12.452Z,3044
2018-03-03T06:50:53.001Z,3088
2018-03-03T06:51:33.573Z,3132
2018-03-03T06:52:14.131Z,3172
2018-03-03T06:52:54.680Z,3212
2018-03-03T06:53:35.245Z,3272
2018-03-03T06:54:15.788Z,3308
2018-03-03T06:54:56.370Z,3336
2018-03-03T06:55:36.938Z,3380
2018-03-03T06:56:17.490Z,3440
2018-03-03T06:56:58.088Z,3464
2018-03-03T06:57:38.639Z,3496
2018-03-03T06:58:19.308Z,3516
2018-03-03T06:58:59.835Z,3572
2018-03-03T06:59:40.375Z,3628
2018-03-03T07:00:20.978Z,3688
2018-03-03T07:01:01.496Z,3736
2018-03-03T07:01:42.074Z,3772
2018-03-03T07:02:22.617Z,3804
2018-03-03T07:03:03.263Z,3868
2018-03-03T07:03:43.805Z,3892
2018-03-03T07:04:24.358Z,3928
2018-03-03T07:05:04.941Z,3964
2018-03-03T07:05:45.604Z,4000
2018-03-03T07:06:26.199Z,4028
2018-03-03T07:07:06.764Z,4072
2018-03-03T07:07:47.378Z,4128
2018-03-03T07:08:27.859Z,4188
2018-03-03T07:09:08.495Z,4232
2018-03-03T07:09:49.067Z,4336
2018-03-03T07:10:29.603Z,4328
2018-03-03T07:11:10.160Z,4372
2018-03-03T07:11:50.826Z,4404
2018-03-03T07:12:31.450Z,4424
2018-03-03T07:13:12.004Z,4468
2018-03-03T07:13:52.578Z,4516
2018-03-03T07:14:33.148Z,4532
2018-03-03T07:15:13.702Z,4564
2018-03-03T07:15:54.277Z,4664
2018-03-03T07:16:34.838Z,4720
2018-03-03T07:17:15.375Z,4768
2018-03-03T07:17:55.929Z,4760
2018-03-03T07:18:36.494Z,4812
2018-03-03T07:19:17.096Z,4820
2018-03-03T07:19:57.646Z,4816
2018-03-03T07:20:38.236Z,4844
2018-03-03T07:21:18.829Z,4920
2018-03-03T07:21:59.386Z,4968
2018-03-03T07:22:39.917Z,4976
2018-03-03T07:23:20.491Z,4992
2018-03-03T07:24:01.181Z,5092
2018-03-03T07:24:41.725Z,5108
2018-03-03T07:25:22.253Z,5176
2018-03-03T07:26:02.878Z,5212
2018-03-03T07:26:43.452Z,5284
2018-03-03T07:27:23.999Z,5452
2018-03-03T07:28:04.567Z,5424
2018-03-03T07:28:45.169Z,5436
2018-03-03T07:29:25.748Z,5332
2018-03-03T07:30:06.364Z,5356
2018-03-03T07:30:46.984Z,5380
2018-03-03T07:31:27.490Z,5412
2018-03-03T07:32:08.038Z,5476
2018-03-03T07:32:48.673Z,5872
2018-03-03T07:33:29.225Z,5760
2018-03-03T07:34:09.837Z,5816
2018-03-03T07:34:50.390Z,5928
2018-03-03T07:35:31.053Z,6000
2018-03-03T07:36:11.585Z,5956
2018-03-03T07:36:52.135Z,6136
2018-03-03T07:37:32.677Z,6424
2018-03-03T07:38:13.224Z,7176
2018-03-03T07:38:53.799Z,16288
2018-03-03T07:39:34.355Z,27904
2018-03-03T07:40:14.906Z,35840
2018-03-03T07:40:55.482Z,37344
2018-03-03T07:41:36.094Z,32320
2018-03-03T07:42:16.770Z,21824
2018-03-03T07:42:57.321Z,11208
2018-03-03T07:43:37.914Z,9092
2018-03-03T07:44:18.689Z,10796
2018-03-03T07:44:59.242Z,12136
2018-03-03T07:45:39.791Z,10536
2018-03-03T07:46:20.341Z,7788
2018-03-03T07:47:00.904Z,18112
2018-03-03T07:47:41.456Z,35840
2018-03-03T07:48:22.004Z,51328
2018-03-03T07:49:02.551Z,52384
2018-03-03T07:49:43.092Z,51136
2018-03-03T07:50:23.655Z,39456
2018-03-03T07:51:04.220Z,51680
2018-03-03T07:51:44.781Z,51872
2018-03-03T07:52:25.352Z,54816
2018-03-03T07:53:05.985Z,57376
2018-03-03T07:53:46.566Z,55808
2018-03-03T07:54:27.110Z,56832
2018-03-03T07:55:07.668Z,55072
2018-03-03T07:55:48.262Z,54976
2018-03-03T07:56:28.822Z,55456
2018-03-03T07:57:09.371Z,57152
2018-03-03T07:57:50.030Z,57504
2018-03-03T07:58:30.620Z,59616
2018-03-03T07:59:11.149Z,59872
2018-03-03T07:59:51.720Z,31456
2018-03-03T08:00:32.406Z,28128
2018-03-03T08:01:12.985Z,56960
2018-03-03T08:01:53.550Z,56352
2018-03-03T08:02:34.114Z,56576
2018-03-03T08:03:14.676Z,59008
2018-03-03T08:03:55.294Z,59520
2018-03-03T08:04:35.854Z,59392
2018-03-03T08:05:16.405Z,58784
2018-03-03T08:05:56.979Z,57440
2018-03-03T08:06:37.531Z,35584
2018-03-03T08:07:18.081Z,39296
2018-03-03T08:07:58.738Z,56064
2018-03-03T08:08:39.342Z,60896
2018-03-03T08:09:20.206Z,59744
2018-03-03T08:10:00.762Z,62112
2018-03-03T08:10:41.304Z,62496
2018-03-03T08:11:21.879Z,61280
2018-03-03T08:12:02.493Z,60224
2018-03-03T08:12:43.202Z,59744
2018-03-03T08:13:23.807Z,61376
2018-03-03T08:14:04.418Z,61408
2018-03-03T08:14:45.042Z,62560
2018-03-03T08:15:25.611Z,53728
2018-03-03T08:16:06.233Z,33088
2018-03-03T08:16:46.780Z,61664
2018-03-03T08:17:27.532Z,59488
2018-03-03T08:18:08.171Z,59296
2018-03-03T08:18:48.712Z,58656
2018-03-03T08:19:29.263Z,58688
2018-03-03T08:20:10.018Z,58560
2018-03-03T08:20:50.574Z,57600
2018-03-03T08:21:31.457Z,55904
2018-03-03T08:22:11.748Z,55072
2018-03-03T08:22:52.462Z,54272
2018-03-03T08:23:33.133Z,53536
2018-03-03T08:24:13.721Z,54016
2018-03-03T08:24:54.285Z,55488
2018-03-03T08:25:34.843Z,58144
2018-03-03T08:26:15.411Z,53312
2018-03-03T08:26:56.014Z,56736
2018-03-03T08:27:36.777Z,59264
2018-03-03T08:28:17.389Z,59456
2018-03-03T08:28:57.930Z,55104
2018-03-03T08:29:38.517Z,57184
2018-03-03T08:30:19.074Z,57440
2018-03-03T08:30:59.718Z,57376
2018-03-03T08:31:40.258Z,57312
2018-03-03T08:32:20.804Z,59584
2018-03-03T08:33:01.389Z,59232
2018-03-03T08:33:41.958Z,57504
2018-03-03T08:34:22.555Z,56608
2018-03-03T08:35:03.118Z,57920
2018-03-03T08:35:43.859Z,59200
2018-03-03T08:37:16.859Z,57984
2018-03-03T08:37:58.138Z,59104
2018-03-03T08:38:41.012Z,58464
2018-03-03T08:39:21.776Z,54944
2018-03-03T08:40:02.348Z,51936
2018-03-03T08:40:42.899Z,52064
2018-03-03T08:41:23.829Z,52480
2018-03-03T08:42:06.704Z,51424
2018-03-03T08:42:48.142Z,47744
2018-03-03T08:43:29.224Z,44992
2018-03-03T08:44:10.583Z,43040
2018-03-03T08:44:51.867Z,39072
2018-03-03T08:45:33.444Z,39136
2018-03-03T08:46:14.901Z,37280
2018-03-03T08:46:55.839Z,34656
2018-03-03T08:47:36.779Z,33632
2018-03-03T08:48:18.947Z,32992
2018-03-03T08:48:59.356Z,32160
2018-03-03T08:49:40.019Z,30848
2018-03-03T08:50:20.590Z,30464
2018-03-03T08:51:01.180Z,29280
2018-03-03T08:51:41.750Z,28800
2018-03-03T08:52:24.102Z,27360
2018-03-03T08:53:05.440Z,25536
2018-03-03T08:53:46.715Z,23072
2018-03-03T08:54:27.844Z,20288
2018-03-03T08:55:08.815Z,18720
2018-03-03T08:55:50.203Z,18240
2018-03-03T08:56:31.269Z,17952
2018-03-03T08:57:12.138Z,17248
2018-03-03T08:57:53.507Z,16512
2018-03-03T08:58:34.134Z,15968
2018-03-03T08:59:14.920Z,15392
2018-03-03T08:59:55.563Z,14912
2018-03-03T09:00:36.427Z,14412
2018-03-03T09:03:17.769Z,12604
2018-03-03T09:03:59.614Z,12180
2018-03-03T09:04:40.326Z,12028
2018-03-03T09:05:21.121Z,11704
2018-03-03T09:06:01.710Z,11472
2018-03-03T09:06:42.327Z,11008
2018-03-03T09:07:23.569Z,10828
2018-03-03T09:08:05.705Z,10580
2018-03-03T09:08:46.961Z,10464
2018-03-03T09:09:26.825Z,10076
2018-03-03T09:10:07.554Z,9908
2018-03-03T09:10:48.778Z,9908
2018-03-03T09:11:29.760Z,9812
2018-03-03T09:12:10.790Z,9500
2018-03-03T09:12:51.974Z,9244
2018-03-03T09:13:32.962Z,9208
2018-03-03T09:14:13.419Z,9100
2018-03-03T09:14:53.955Z,8952
2018-03-03T09:15:34.509Z,8944
2018-03-03T09:16:15.166Z,8732
2018-03-03T09:16:55.724Z,8692
2018-03-03T09:17:37.310Z,8588
2018-03-03T09:18:18.185Z,8440
2018-03-03T09:18:58.984Z,8360
2018-03-03T09:19:39.525Z,8220
2018-03-03T09:20:20.606Z,8092
2018-03-03T09:21:01.160Z,8040
2018-03-03T09:21:41.766Z,8024
2018-03-03T09:22:22.992Z,7900
2018-03-03T09:23:04.195Z,7732
2018-03-03T09:23:46.262Z,7744
2018-03-03T09:24:27.549Z,7704
2018-03-03T09:25:08.933Z,7568
2018-03-03T09:25:49.310Z,7500
2018-03-03T09:26:29.920Z,7416
2018-03-03T09:27:10.528Z,7300
2018-03-03T09:27:51.085Z,7192
2018-03-03T09:28:31.870Z,7180
2018-03-03T09:29:12.421Z,7184
2018-03-03T09:29:53.127Z,7200
2018-03-03T09:30:34.006Z,7184
2018-03-03T09:31:14.573Z,7080
2018-03-03T09:31:55.128Z,7080
2018-03-03T09:32:35.690Z,7012
2018-03-03T09:33:16.247Z,7036
2018-03-03T09:33:56.855Z,7064
2018-03-03T09:34:37.356Z,7012
2018-03-03T09:35:17.909Z,6920
2018-03-03T09:35:58.474Z,6916
2018-03-03T09:36:39.026Z,6888
2018-03-03T09:37:19.576Z,6828
2018-03-03T09:38:00.171Z,6812